createdAt,value
2022-12-20T00:01:27.121Z,11.07
2022-12-20T00:03:55.426Z,11.63
2022-12-20T00:06:22.638Z,12.13
2022-12-20T00:08:54.694Z,12.05
2022-12-20T00:11:21.466Z,12.60
2022-12-20T00:13:48.245Z,13.00
2022-12-20T00:16:20.415Z,12.35
2022-12-20T00:18:47.544Z,12.57
2022-12-20T00:21:15.295Z,14.27
2022-12-20T00:23:42.167Z,13.25
2022-12-20T00:26:24.159Z,13.02
2022-12-20T00:28:52.447Z,12.43
2022-12-20T00:31:20.386Z,12.32
2022-12-20T00:33:49.546Z,11.75
2022-12-20T00:36:17.569Z,11.90
2022-12-20T00:38:48.807Z,12.07
2022-12-20T00:41:21.521Z,11.75
2022-12-20T00:43:48.859Z,11.23
2022-12-20T00:46:16.768Z,11.65
2022-12-20T00:48:43.555Z,11.23
2022-12-20T00:51:16.057Z,11.02
2022-12-20T00:53:43.573Z,10.95
2022-12-20T00:56:10.419Z,11.55
2022-12-20T00:58:40.308Z,11.73
2022-12-20T01:01:16.733Z,12.52
2022-12-20T01:03:43.397Z,10.93
2022-12-20T01:06:10.479Z,12.15
2022-12-20T01:08:37.160Z,11.02
2022-12-20T01:11:19.872Z,11.88
2022-12-20T01:13:49.982Z,11.18
2022-12-20T01:16:20.868Z,11.68
2022-12-20T01:18:48.434Z,11.38
2022-12-20T01:21:16.748Z,11.45
2022-12-20T01:23:44.022Z,10.82
2022-12-20T01:26:16.195Z,10.73
2022-12-20T01:28:44.824Z,10.85
2022-12-20T01:31:14.507Z,10.05
2022-12-20T01:33:41.104Z,9.90
2022-12-20T01:36:11.865Z,9.98
2022-12-20T01:38:38.590Z,10.18
2022-12-20T01:41:05.694Z,10.20
2022-12-20T01:43:56.463Z,9.65
2022-12-20T01:46:29.425Z,10.05
2022-12-20T01:49:17.028Z,10.20
2022-12-20T01:51:50.336Z,9.73
2022-12-20T01:54:18.020Z,10.05
2022-12-20T01:56:51.021Z,9.75
2022-12-20T01:59:17.793Z,9.73
2022-12-20T02:01:46.225Z,9.20
2022-12-20T02:04:13.343Z,10.38
2022-12-20T02:06:40.173Z,10.70
2022-12-20T02:09:08.794Z,10.02
2022-12-20T02:11:38.350Z,9.77
2022-12-20T02:14:16.970Z,10.73
2022-12-20T02:17:13.779Z,9.48
2022-12-20T02:20:17.520Z,9.38
2022-12-20T02:23:13.606Z,9.50
2022-12-20T02:25:52.291Z,8.70
2022-12-20T02:28:18.896Z,10.13
2022-12-20T02:30:49.996Z,11.07
2022-12-20T02:33:19.210Z,10.65
2022-12-20T02:35:45.777Z,9.98
2022-12-20T02:38:28.863Z,10.02
2022-12-20T02:41:04.738Z,8.57
2022-12-20T02:43:51.730Z,8.63
2022-12-20T02:46:20.467Z,8.93
2022-12-20T02:48:49.475Z,8.45
2022-12-20T02:51:18.635Z,8.32
2022-12-20T02:53:45.592Z,8.60
2022-12-20T02:56:28.662Z,8.00
2022-12-20T02:59:13.237Z,7.95
2022-12-20T03:01:47.373Z,8.32
2022-12-20T03:04:15.709Z,7.85
2022-12-20T03:07:01.796Z,8.48
2022-12-20T03:09:31.545Z,7.78
2022-12-20T03:11:58.151Z,8.35
2022-12-20T03:14:24.919Z,7.85
2022-12-20T03:16:51.815Z,7.32
2022-12-20T03:19:18.398Z,7.57
2022-12-20T03:21:44.999Z,7.60
2022-12-20T03:24:13.599Z,7.47
2022-12-20T03:26:41.315Z,8.20
2022-12-20T03:29:08.602Z,7.60
2022-12-20T03:31:35.717Z,7.30
2022-12-20T03:34:03.030Z,7.68
2022-12-20T03:36:29.822Z,7.32
2022-12-20T03:38:56.621Z,8.02
2022-12-20T03:41:24.343Z,7.30
2022-12-20T03:43:52.756Z,7.40
2022-12-20T03:46:19.382Z,6.68
2022-12-20T03:48:45.946Z,8.00
2022-12-20T03:51:12.530Z,7.07
2022-12-20T03:53:39.205Z,6.50
2022-12-20T03:56:06.235Z,6.70
2022-12-20T03:58:32.815Z,7.13
2022-12-20T04:00:59.416Z,6.43
2022-12-20T04:03:26.027Z,6.22
2022-12-20T04:05:52.660Z,6.32
2022-12-20T04:08:19.289Z,5.70
2022-12-20T04:11:04.415Z,5.68
2022-12-20T04:13:31.103Z,5.50
2022-12-20T04:16:00.752Z,4.93
2022-12-20T04:18:27.908Z,5.20
2022-12-20T04:20:54.939Z,4.82
2022-12-20T04:23:21.720Z,4.65
2022-12-20T04:25:48.264Z,4.97
2022-12-20T04:28:14.793Z,5.10
2022-12-20T04:30:41.423Z,5.00
2022-12-20T04:33:07.947Z,4.97
2022-12-20T04:35:34.478Z,5.18
2022-12-20T04:38:01.293Z,4.88
2022-12-20T04:40:27.949Z,4.75
2022-12-20T04:42:54.775Z,5.20
2022-12-20T04:45:21.383Z,4.32
2022-12-20T04:47:47.905Z,4.65
2022-12-20T04:50:14.674Z,4.70
2022-12-20T04:52:59.847Z,4.22
2022-12-20T04:55:26.444Z,4.32
2022-12-20T04:57:52.966Z,4.43
2022-12-20T05:00:20.017Z,4.25
2022-12-20T05:02:46.917Z,4.00
2022-12-20T05:05:14.179Z,4.30
2022-12-20T05:07:40.738Z,4.45
2022-12-20T05:10:07.930Z,4.55
2022-12-20T05:12:34.505Z,4.13
2022-12-20T05:15:01.045Z,4.28
2022-12-20T05:17:27.614Z,4.07
2022-12-20T05:19:54.165Z,3.92
2022-12-20T05:22:39.323Z,4.63
2022-12-20T05:25:24.741Z,4.47
2022-12-20T05:27:51.363Z,4.50
2022-12-20T05:30:18.155Z,4.35
2022-12-20T05:32:44.685Z,4.70
2022-12-20T05:35:11.355Z,4.82
2022-12-20T05:37:37.915Z,5.00
2022-12-20T05:40:05.010Z,4.82
2022-12-20T05:42:31.562Z,4.30
2022-12-20T05:44:58.228Z,5.68
2022-12-20T05:47:24.962Z,5.35
2022-12-20T05:49:51.542Z,5.50
2022-12-20T05:52:18.074Z,6.07
2022-12-20T05:54:44.689Z,5.90
2022-12-20T05:57:11.453Z,6.00
2022-12-20T05:59:38.039Z,5.40
2022-12-20T06:02:04.834Z,4.90
2022-12-20T06:04:32.404Z,5.32
2022-12-20T06:06:59.959Z,4.90
2022-12-20T06:09:26.633Z,5.47
2022-12-20T06:11:53.298Z,5.95
2022-12-20T06:14:19.863Z,5.68
2022-12-20T06:16:47.032Z,5.10
2022-12-20T06:19:20.867Z,5.13
2022-12-20T06:21:48.201Z,5.25
2022-12-20T06:24:14.758Z,4.82
2022-12-20T06:26:41.684Z,5.18
2022-12-20T06:29:10.289Z,4.72
2022-12-20T06:31:36.969Z,4.40
2022-12-20T06:34:03.645Z,4.85
2022-12-20T06:36:30.234Z,4.60
2022-12-20T06:38:57.799Z,5.30
2022-12-20T06:41:24.487Z,4.90
2022-12-20T06:43:51.017Z,5.90
2022-12-20T06:46:17.659Z,5.07
2022-12-20T06:48:44.210Z,4.80
2022-12-20T06:51:11.223Z,4.53
2022-12-20T06:53:38.023Z,4.55
2022-12-20T06:56:04.905Z,5.45
2022-12-20T06:58:31.551Z,4.20
2022-12-20T07:00:58.176Z,4.63
2022-12-20T07:03:25.138Z,3.97
2022-12-20T07:05:53.467Z,3.92
2022-12-20T07:08:21.112Z,4.70
2022-12-20T07:10:48.140Z,4.07
2022-12-20T07:13:14.782Z,3.65
2022-12-20T07:15:41.394Z,3.92
2022-12-20T07:18:07.958Z,4.38
2022-12-20T07:20:34.704Z,3.92
2022-12-20T07:23:01.289Z,4.03
2022-12-20T07:25:28.441Z,3.92
2022-12-20T07:27:55.029Z,4.47
2022-12-20T07:30:21.809Z,4.50
2022-12-20T07:32:48.390Z,4.22
2022-12-20T07:35:15.427Z,4.45
2022-12-20T07:37:41.977Z,4.38
2022-12-20T07:40:09.493Z,4.63
2022-12-20T07:42:39.196Z,4.30
2022-12-20T07:45:08.433Z,4.63
2022-12-20T07:47:35.973Z,3.72
2022-12-20T07:50:03.569Z,4.30
2022-12-20T07:52:34.536Z,3.75
2022-12-20T07:55:04.275Z,4.43
2022-12-20T07:57:40.933Z,4.25
2022-12-20T08:00:09.284Z,3.90
2022-12-20T08:02:42.180Z,3.85
2022-12-20T08:05:10.723Z,3.92
2022-12-20T08:07:41.225Z,3.72
2022-12-20T08:10:11.145Z,3.65
2022-12-20T08:12:38.351Z,3.80
2022-12-20T08:15:05.769Z,3.58
2022-12-20T08:17:32.317Z,3.28
2022-12-20T08:20:00.484Z,3.50
2022-12-20T08:22:27.205Z,3.35
2022-12-20T08:24:53.755Z,3.28
2022-12-20T08:27:20.262Z,3.15
2022-12-20T08:29:46.893Z,3.20
2022-12-20T08:32:14.275Z,3.17
2022-12-20T08:34:40.845Z,3.22
2022-12-20T08:37:14.284Z,3.00
2022-12-20T08:39:41.456Z,3.30
2022-12-20T08:42:08.001Z,3.33
2022-12-20T08:44:34.582Z,3.28
2022-12-20T08:47:01.344Z,3.60
2022-12-20T08:49:27.908Z,2.97
2022-12-20T08:51:54.564Z,3.13
2022-12-20T08:54:21.254Z,2.88
2022-12-20T08:56:47.831Z,3.00
2022-12-20T08:59:14.418Z,2.70
2022-12-20T09:01:41.191Z,2.75
2022-12-20T09:04:09.843Z,2.63
2022-12-20T09:06:36.808Z,2.78
2022-12-20T09:09:04.567Z,2.70
2022-12-20T09:11:31.240Z,2.40
2022-12-20T09:13:58.912Z,2.42
2022-12-20T09:16:28.513Z,2.50
2022-12-20T09:19:04.557Z,2.40
2022-12-20T09:21:33.344Z,2.10
2022-12-20T09:24:00.267Z,2.40
2022-12-20T09:26:26.803Z,2.00
2022-12-20T09:28:54.024Z,2.28
2022-12-20T09:31:23.662Z,2.53
2022-12-20T09:33:53.797Z,1.95
2022-12-20T09:36:21.876Z,2.25
2022-12-20T09:38:49.195Z,1.90
2022-12-20T09:41:40.482Z,1.98
2022-12-20T09:44:35.307Z,2.30
2022-12-20T09:47:10.829Z,1.90
2022-12-20T09:49:46.083Z,2.00
2022-12-20T09:52:31.353Z,1.92
2022-12-20T09:55:19.502Z,2.00
2022-12-20T09:58:04.445Z,2.20
2022-12-20T10:00:53.272Z,1.85
2022-12-20T10:03:29.501Z,2.00
2022-12-20T10:06:01.751Z,2.00
2022-12-20T10:09:06.866Z,1.90
2022-12-20T10:12:04.080Z,2.03
2022-12-20T10:15:01.150Z,1.75
2022-12-20T10:17:46.815Z,2.10
2022-12-20T10:20:32.152Z,2.03
2022-12-20T10:23:15.381Z,2.20
2022-12-20T10:25:43.289Z,2.30
2022-12-20T10:28:16.360Z,2.30
2022-12-20T10:30:44.168Z,2.17
2022-12-20T10:33:20.105Z,2.17
2022-12-20T10:35:47.543Z,2.10
2022-12-20T10:38:17.612Z,2.40
2022-12-20T10:43:48.040Z,2.28
2022-12-20T10:46:19.017Z,2.40
2022-12-20T10:48:48.545Z,2.20
2022-12-20T10:51:22.019Z,1.95
2022-12-20T10:53:51.675Z,1.85
2022-12-20T10:56:22.912Z,2.10
2022-12-20T10:58:57.129Z,1.80
2022-12-20T11:01:28.783Z,2.00
2022-12-20T11:04:04.819Z,1.70
2022-12-20T11:06:37.279Z,2.30
2022-12-20T11:09:25.607Z,1.85
2022-12-20T11:12:01.975Z,1.77
2022-12-20T11:14:34.583Z,2.42
2022-12-20T11:17:39.946Z,1.55
2022-12-20T11:20:28.188Z,1.80
2022-12-20T11:23:22.474Z,1.83
2022-12-20T11:25:57.064Z,1.80
2022-12-20T11:28:36.258Z,1.90
2022-12-20T11:31:21.365Z,1.70
2022-12-20T11:33:58.388Z,1.80
2022-12-20T11:36:55.463Z,1.80
2022-12-20T11:39:59.203Z,1.95
2022-12-20T11:42:34.497Z,1.60
2022-12-20T11:45:33.989Z,1.77
2022-12-20T11:48:12.402Z,1.75
2022-12-20T11:50:44.798Z,1.80
2022-12-20T11:53:27.705Z,1.90
2022-12-20T11:55:59.548Z,1.80
2022-12-20T11:58:57.517Z,2.20
2022-12-20T12:01:37.618Z,1.80
2022-12-20T12:04:19.724Z,1.92
2022-12-20T12:06:53.481Z,2.08
2022-12-20T12:09:25.301Z,1.98
2022-12-20T12:12:22.442Z,1.75
2022-12-20T12:14:51.761Z,1.80
2022-12-20T12:17:29.566Z,2.00
2022-12-20T12:20:05.987Z,1.80
2022-12-20T12:22:39.198Z,1.80
2022-12-20T12:25:14.222Z,1.67
2022-12-20T12:27:40.922Z,1.70
2022-12-20T12:30:13.344Z,2.00
2022-12-20T12:32:51.272Z,2.20
2022-12-20T12:35:53.296Z,1.65
2022-12-20T12:38:31.951Z,1.77
2022-12-20T12:41:22.421Z,1.50
2022-12-20T12:43:55.856Z,1.55
2022-12-20T12:46:36.523Z,1.90
2022-12-20T12:49:18.215Z,1.65
2022-12-20T12:51:52.115Z,1.70
2022-12-20T12:54:41.112Z,1.50
2022-12-20T12:57:18.650Z,1.55
2022-12-20T12:59:48.542Z,1.60
2022-12-20T13:02:15.685Z,1.70
2022-12-20T13:05:06.791Z,1.70
2022-12-20T13:07:33.397Z,1.88
2022-12-20T13:10:02.187Z,1.67
2022-12-20T13:12:34.540Z,1.35
2022-12-20T13:15:01.129Z,1.63
2022-12-20T13:17:30.566Z,1.77
2022-12-20T13:19:57.699Z,1.70
2022-12-20T13:22:25.531Z,2.20
2022-12-20T13:25:00.193Z,1.90
2022-12-20T13:27:32.058Z,2.10
2022-12-20T13:30:04.429Z,1.98
2022-12-20T13:32:49.074Z,1.75
2022-12-20T13:35:25.047Z,2.03
2022-12-20T13:38:06.473Z,2.30
2022-12-20T13:40:38.921Z,1.90
2022-12-20T13:43:17.926Z,2.20
2022-12-20T13:45:47.793Z,1.75
2022-12-20T13:48:22.995Z,2.13
2022-12-20T13:50:52.955Z,2.30
2022-12-20T13:53:22.833Z,2.00
2022-12-20T13:55:50.280Z,1.90
2022-12-20T13:58:22.221Z,1.88
2022-12-20T14:00:50.064Z,2.25
2022-12-20T14:03:25.824Z,1.83
2022-12-20T14:05:58.671Z,3.65
2022-12-20T14:08:30.520Z,2.20
2022-12-20T14:11:07.878Z,2.45
2022-12-20T14:13:34.487Z,2.38
2022-12-20T14:16:23.384Z,2.63
2022-12-20T14:18:51.696Z,2.47
2022-12-20T14:21:19.093Z,2.20
2022-12-20T14:23:48.903Z,2.53
2022-12-20T14:26:40.976Z,2.30
2022-12-20T14:29:12.883Z,3.03
2022-12-20T14:31:43.119Z,3.10
2022-12-20T14:34:13.522Z,2.53
2022-12-20T14:36:48.630Z,2.63
2022-12-20T14:39:34.187Z,2.40
2022-12-20T14:42:13.317Z,2.90
2022-12-20T14:44:40.199Z,2.47
2022-12-20T14:47:15.528Z,2.83
2022-12-20T14:49:49.641Z,2.50
2022-12-20T14:52:32.067Z,2.78
2022-12-20T14:55:14.585Z,2.75
2022-12-20T14:57:50.355Z,3.10
2022-12-20T15:00:23.851Z,3.08
2022-12-20T15:02:56.208Z,2.85
2022-12-20T15:05:41.003Z,3.53
2022-12-20T15:08:28.760Z,2.85
2022-12-20T15:11:10.816Z,3.05
2022-12-20T15:13:46.855Z,3.50
2022-12-20T15:16:19.962Z,2.97
2022-12-20T15:18:47.604Z,2.40
2022-12-20T15:21:19.907Z,3.13
2022-12-20T15:42:35.935Z,3.47
2022-12-20T15:45:02.707Z,3.08
2022-12-20T15:47:29.280Z,3.10
2022-12-20T15:49:55.909Z,3.20
2022-12-20T15:52:23.929Z,2.92
2022-12-20T15:54:50.954Z,3.00
2022-12-20T15:57:17.562Z,3.15
2022-12-20T16:00:01.714Z,3.03
2022-12-20T16:02:31.070Z,2.90
2022-12-20T16:04:59.036Z,3.08
2022-12-20T16:07:25.859Z,2.92
2022-12-20T16:09:52.602Z,3.10
2022-12-20T16:12:36.454Z,3.08
2022-12-20T16:15:03.612Z,3.40
2022-12-20T16:17:30.334Z,3.35
2022-12-20T16:19:56.972Z,3.50
2022-12-20T16:22:24.189Z,3.20
2022-12-20T16:24:51.949Z,3.13
2022-12-20T16:27:18.684Z,3.45
2022-12-20T16:29:45.562Z,3.60
2022-12-20T16:32:21.765Z,4.22
2022-12-20T16:34:52.104Z,4.00
2022-12-20T16:37:18.887Z,4.32
2022-12-20T16:39:45.925Z,4.20
2022-12-20T16:42:22.479Z,4.45
2022-12-20T16:44:53.518Z,4.65
2022-12-20T16:47:20.242Z,4.40
2022-12-20T16:49:52.205Z,4.38
2022-12-20T16:52:21.869Z,4.57
2022-12-20T16:54:49.003Z,4.55
2022-12-20T16:57:15.558Z,4.28
2022-12-20T16:59:42.147Z,4.57
2022-12-20T17:02:29.349Z,4.43
2022-12-20T17:04:56.265Z,5.05
2022-12-20T17:07:22.873Z,4.90
2022-12-20T17:09:49.507Z,5.25
2022-12-20T17:12:18.210Z,5.53
2022-12-20T17:14:45.084Z,5.45
2022-12-20T17:17:12.348Z,5.30
2022-12-20T17:19:43.107Z,5.40
2022-12-20T17:22:24.962Z,5.45
2022-12-20T17:24:51.626Z,4.82
2022-12-20T17:27:19.099Z,5.22
2022-12-20T17:29:50.297Z,5.40
2022-12-20T17:32:22.176Z,5.45
2022-12-20T17:34:48.908Z,5.28
2022-12-20T17:37:15.849Z,6.18
2022-12-20T17:39:42.375Z,5.60
2022-12-20T17:42:13.510Z,5.60
2022-12-20T17:44:40.546Z,5.18
2022-12-20T17:47:07.148Z,5.57
2022-12-20T17:49:33.703Z,5.90
2022-12-20T17:52:00.360Z,6.35
2022-12-20T17:54:32.046Z,6.50
2022-12-20T17:57:01.633Z,6.07
2022-12-20T17:59:29.331Z,6.03
2022-12-20T18:01:56.276Z,6.40
2022-12-20T18:04:23.899Z,6.13
2022-12-20T18:06:50.686Z,6.35
2022-12-20T18:09:19.985Z,6.72
2022-12-20T18:11:47.031Z,6.22
2022-12-20T18:14:14.690Z,6.85
2022-12-20T18:16:41.438Z,7.18
2022-12-20T18:19:14.444Z,6.82
2022-12-20T18:21:41.795Z,7.20
2022-12-20T18:24:11.995Z,6.75
2022-12-20T18:26:38.738Z,7.00
2022-12-20T18:29:05.424Z,6.97
2022-12-20T18:31:34.497Z,6.82
2022-12-20T18:34:01.884Z,7.03
2022-12-20T18:36:34.776Z,8.30
2022-12-20T18:39:03.657Z,8.13
2022-12-20T18:41:31.467Z,8.48
2022-12-20T18:44:00.851Z,8.15
2022-12-20T18:46:28.630Z,8.25
2022-12-20T18:48:56.865Z,8.02
2022-12-20T18:51:26.621Z,8.52
2022-12-20T18:53:55.655Z,8.57
2022-12-20T18:56:25.306Z,8.73
2022-12-20T18:58:52.683Z,8.38
2022-12-20T19:01:22.285Z,7.72
2022-12-20T19:03:50.378Z,9.00
2022-12-20T19:06:17.348Z,8.65
2022-12-20T19:08:44.170Z,8.50
2022-12-20T19:11:16.979Z,7.85
2022-12-20T19:13:44.795Z,8.05
2022-12-20T19:16:16.938Z,8.27
2022-12-20T19:18:44.138Z,8.65
2022-12-20T19:21:22.316Z,8.23
2022-12-20T19:23:51.453Z,8.70
2022-12-20T19:26:21.931Z,8.25
2022-12-20T19:28:48.523Z,7.85
2022-12-20T19:31:21.802Z,7.90
2022-12-20T19:33:50.559Z,7.38
2022-12-20T19:36:26.303Z,6.82
2022-12-20T19:38:55.965Z,7.60
2022-12-20T19:41:24.121Z,6.53
2022-12-20T19:43:51.727Z,6.47
2022-12-20T19:46:27.963Z,6.15
2022-12-20T19:48:55.961Z,6.22
2022-12-20T19:51:23.204Z,6.22
2022-12-20T19:53:51.758Z,6.25
2022-12-20T19:56:20.943Z,6.60
2022-12-20T19:58:47.948Z,6.10
2022-12-20T20:01:16.241Z,6.22
2022-12-20T20:03:42.987Z,6.45
2022-12-20T20:06:10.529Z,6.35
2022-12-20T20:08:37.234Z,6.05
2022-12-20T20:11:09.429Z,5.88
2022-12-20T20:13:37.730Z,5.43
2022-12-20T20:16:04.986Z,5.82
2022-12-20T20:18:34.420Z,5.07
2022-12-20T20:21:07.337Z,4.63
2022-12-20T20:23:35.421Z,4.53
2022-12-20T20:26:02.354Z,4.57
2022-12-20T20:28:32.562Z,4.80
2022-12-20T20:31:01.316Z,4.80
2022-12-20T20:33:28.186Z,5.40
2022-12-20T20:35:56.662Z,5.70
2022-12-20T20:38:24.084Z,6.10
2022-12-20T20:40:51.038Z,5.88
2022-12-20T20:43:18.159Z,6.35
2022-12-20T20:45:44.729Z,7.05
2022-12-20T20:48:11.593Z,5.72
2022-12-20T20:50:38.277Z,6.50
2022-12-20T20:53:06.993Z,5.32
2022-12-20T20:55:34.681Z,5.45
2022-12-20T20:58:01.998Z,4.60
2022-12-20T21:00:29.683Z,4.25
2022-12-20T21:02:56.947Z,4.47
2022-12-20T21:08:10.555Z,5.03
2022-12-20T21:10:37.300Z,5.03
2022-12-20T21:13:04.893Z,5.45
2022-12-20T21:15:31.496Z,6.07
2022-12-20T21:17:58.762Z,5.55
2022-12-20T21:20:26.573Z,5.97
2022-12-20T21:22:53.515Z,6.40
2022-12-20T21:25:20.087Z,5.55
2022-12-20T21:27:46.652Z,6.55
2022-12-20T21:30:13.295Z,5.68
2022-12-20T21:32:39.918Z,5.78
2022-12-20T21:35:06.903Z,5.50
2022-12-20T21:37:33.499Z,4.80
2022-12-20T21:40:00.104Z,4.72
2022-12-20T21:42:26.658Z,4.10
2022-12-20T21:44:53.432Z,3.95
2022-12-20T21:47:20.223Z,4.10
2022-12-20T21:49:47.133Z,3.55
2022-12-20T21:52:14.280Z,3.38
2022-12-20T21:54:40.841Z,2.67
2022-12-20T21:57:07.395Z,2.25
2022-12-20T21:59:33.977Z,2.20
2022-12-20T22:02:00.754Z,2.22
2022-12-20T22:04:27.767Z,2.03
2022-12-20T22:06:54.363Z,2.13
2022-12-20T22:09:21.067Z,1.90
2022-12-20T22:11:50.650Z,1.83
2022-12-20T22:14:17.263Z,1.70
2022-12-20T22:16:44.281Z,1.52
2022-12-20T22:19:13.604Z,1.65
2022-12-20T22:21:40.430Z,1.55
2022-12-20T22:24:07.415Z,1.40
2022-12-20T22:26:34.273Z,1.75
2022-12-20T22:29:05.324Z,1.30
2022-12-20T22:31:32.397Z,1.10
2022-12-20T22:33:59.656Z,1.08
2022-12-20T22:36:26.683Z,1.20
2022-12-20T22:38:55.598Z,1.20
2022-12-20T22:41:28.785Z,0.90
2022-12-20T22:43:57.430Z,0.90
2022-12-20T22:46:24.139Z,0.93
2022-12-20T22:48:50.959Z,0.93
2022-12-20T22:51:20.816Z,1.10
2022-12-20T22:53:47.900Z,1.20
2022-12-20T22:56:16.309Z,1.00
2022-12-20T22:58:43.396Z,1.10
2022-12-20T23:01:12.576Z,0.95
2022-12-20T23:03:39.961Z,0.80
2022-12-20T23:06:08.032Z,0.85
2022-12-20T23:08:36.564Z,0.90
2022-12-20T23:11:34.310Z,0.90
2022-12-20T23:14:19.339Z,0.95
2022-12-20T23:16:46.030Z,0.70
2022-12-20T23:19:12.922Z,0.85
2022-12-20T23:21:57.928Z,0.80
2022-12-20T23:24:24.753Z,0.70
2022-12-20T23:26:51.558Z,0.88
2022-12-20T23:29:18.317Z,0.70
2022-12-20T23:31:44.905Z,1.02
2022-12-20T23:34:11.559Z,0.90
2022-12-20T23:36:38.453Z,0.60
2022-12-20T23:39:05.241Z,0.70
2022-12-20T23:41:32.283Z,0.60
2022-12-20T23:43:59.413Z,0.40
2022-12-20T23:46:26.434Z,0.40
2022-12-20T23:48:53.551Z,0.50
2022-12-20T23:51:20.739Z,0.60
2022-12-20T23:53:47.613Z,0.60
2022-12-20T23:56:19.877Z,0.60
2022-12-20T23:58:51.266Z,0.52
